Eagle Tampa — S6NK6 — position and weather

sailwx.info

Track history (hours):
 
Tides and Currents Weather Stations Pressure Air Temp Water Temp Dewpoint Dewpoint Depression Visibility Wind Speed Wind Dir Waves Ship Positions

Eagle Tampa

Last reported at 2015-Mar-31 01:33 UTC. Time now 2015-Mar-31 09:45 UTC.
Position N 29°32' W 094°53'.

Length 247 m; draft 8.5 m.

Type: Tanker. MMSI: 563936000.

Date/timePositionNaut miles runAvg speedWind from/ knotsBaromVisibWave heightAir tempDewpointWater temp
2015-Mar-31 01:33N 29°32' W 094°53'1010.5
2015-Mar-31 00:33N 29°41' W 094°59'7 7.2
2015-Mar-30 23:32N 29°46' W 095°05'1 0.0
2015-Mar-29 20:24N 29°45' W 095°06'0 0.0
2015-Mar-28 19:33N 29°45' W 095°06'4 4.5
2015-Mar-28 18:33N 29°43' W 095°01'8 7.8
2015-Mar-28 17:33N 29°36' W 094°57'10 9.5
2015-Mar-28 16:33N 29°28' W 094°51'  
2015-Mar-25 14:26N 29°09' W 094°33'0 0.0
2015-Mar-25 04:11N 29°09' W 094°33'  
Track history (hours):
 
Tides and Currents Weather Stations Pressure Air Temp Water Temp Dewpoint Dewpoint Depression Visibility Wind Speed Wind Dir Waves Ship Positions

Eagle Tampa

Last reported at 2015-Mar-31 01:33 UTC. Time now 2015-Mar-31 09:45 UTC.
Position N 29°32' W 094°53'.

Length 247 m; draft 8.5 m.

Type: Tanker. MMSI: 563936000.

Date/timePositionNaut miles runAvg speedWind from/ knotsBaromVisibWave heightAir tempDewpointWater temp
2015-Mar-31 01:33N 29°32' W 094°53'1010.5
2015-Mar-31 00:33N 29°41' W 094°59'7 7.2
2015-Mar-30 23:32N 29°46' W 095°05'1 0.0
2015-Mar-29 20:24N 29°45' W 095°06'0 0.0
2015-Mar-28 19:33N 29°45' W 095°06'4 4.5
2015-Mar-28 18:33N 29°43' W 095°01'8 7.8
2015-Mar-28 17:33N 29°36' W 094°57'10 9.5
2015-Mar-28 16:33N 29°28' W 094°51'  
2015-Mar-25 14:26N 29°09' W 094°33'0 0.0
2015-Mar-25 04:11N 29°09' W 094°33'  

Dump ship's entire track history